Petersburgh, NY

10:45 AM EDT on October 23, 2014 (GMT -0400)
Harriman And West | Change Station
CLOSE
Current Station
Airport
Location: North Adams,
Elevation: 653 ft
Nearby Weather Stations

Elev 653 ft 42.70 °N, 73.17 °W | Updated 35 minutes ago

Rain
Rain
43 °F
Feels Like 38 °F
N
8
Wind Variable Wind from West

Today
High -- | Low -- °F
--% Chance of Precip.
Yesterday
High -- | Low -- °F
Precip. -- in
7:16 AM 5:58 PM
Waning Crescent, 0% visible
Pressure 29.81 in
Visibility 1.5 miles
Clouds Mostly Cloudy 600 ft
Mostly Cloudy 1400 ft
Overcast 4400 ft
Windchill 38 °F
Dew Point 42 °F
Humidity 97%
Rainfall 1.52 in
Snow Depth Not available.
UV 1 out of 12
Pollen .10 out of 12
PM2.5 Good
Flu Activity Sporadic
SPECI KAQW 231410Z AUTO 26007KT 1 1/2SM RA BR BKN006 BKN014 OVC044 06/06 A2981 RMK AO2 P0006 T00610056

More Conditions Fewer Conditions

Pressure 29.81 in
Visibility 1.5 miles
Clouds Mostly Cloudy 600 ft
Mostly Cloudy 1400 ft
Overcast 4400 ft
Windchill 38 °F
Dew Point 42 °F
Humidity 97%
Rainfall 1.52 in
Snow Depth Not available.
UV 1 out of 12
Pollen .10 out of 12
PM2.5 Good
Flu Activity Sporadic
SPECI KAQW 231410Z AUTO 26007KT 1 1/2SM RA BR BKN006 BKN014 OVC044 06/06 A2981 RMK AO2 P0006 T00610056

More Conditions Fewer Conditions

10-Day Weather Forecast

Almanac

Astronomy

Oct. 23, 2014 Rise Set
Actual Time 7:16 AM EDT 5:58 PM EDT
Civil Twilight 6:47 AM EDT 6:27 PM EDT
Nautical Twilight 6:14 AM EDT 7:00 PM EDT
Astronomical Twilight 5:41 AM EDT 7:33 PM EDT
Moon 6:52 AM EDT 5:58 PM EDT
Length of Visible Light 11h 40m
Length of Day
10h 42m
Tomorrow will be 2m 42s shorter.
Waning Crescent, 0% of the Moon is Illuminated
Today
Waning Crescent
Oct 23
New
Oct 30
First Quarter
Nov 6
Full
Nov 14
Last Quarter

Today's Extremes

State Highs State Lows

Community

WunderPhotos

Upload Photos

1,764,272 photos uploaded!

WunderBlogs® & News

Nearby

Air Quality

  Air Quality AQ Index Pollutant
Yesterday Good
OZONE
Yesterday Good
PM2.5
Current Good
PM2.5
Thursday Good
PM2.5

Snow Depth

Station Depth Elevation
No new snow has been reported.

Earthquake Activity

City Distance Mag. Time & Date
No recent earthquake activity has been reported nearby.
Minimum magnitude displayed is 2.5.

Coastal Water Temperatures

Place Temperature
No Stations Reporting

Nearby Weather Stations